Time;durP1;ratioP1;P1;durP2;ratioP2;P2;SDS_P1;SDS_P2;PMS_P1;PMS_P2;Temp;Humidity;BMP_temperature;BMP_pressure;BME280_temperature;BME280_humidity;BME280_pressure;Samples;Min_cycle;Max_cycle;Signal;HPM_P1;HPM_P2
2024/01/17 00:01:54;;;;;;;15.20;10.97;;;;;;;;;;5053791;28;20075;-56
2024/01/17 00:04:20;;;;;;;11.17;8.90;;;;;;;;;;5053668;28;20029;-55
2024/01/17 00:06:46;;;;;;;15.73;11.80;;;;;;;;;;5054040;28;20052;-56
2024/01/17 00:09:14;;;;;;;12.67;10.27;;;;;;;;;;5053684;28;20029;-56
2024/01/17 00:11:40;;;;;;;15.07;11.67;;;;;;;;;;5054187;28;20155;-55
2024/01/17 00:14:06;;;;;;;15.13;10.63;;;;;;;;;;5054158;28;20040;-56
2024/01/17 00:16:32;;;;;;;18.77;12.77;;;;;;;;;;5053249;28;20086;-56
2024/01/17 00:18:58;;;;;;;17.67;11.20;;;;;;;;;;5053769;28;20119;-55
2024/01/17 00:21:24;;;;;;;15.43;11.53;;;;;;;;;;5053811;28;20025;-54
2024/01/17 00:23:50;;;;;;;12.67;10.90;;;;;;;;;;5053785;28;20340;-55
2024/01/17 00:26:16;;;;;;;14.27;11.23;;;;;;;;;;5053560;28;20367;-55
2024/01/17 00:28:42;;;;;;;14.70;11.43;;;;;;;;;;5054068;28;20114;-56
2024/01/17 00:31:08;;;;;;;16.53;11.53;;;;;;;;;;5053990;28;20386;-56
2024/01/17 00:33:34;;;;;;;15.43;10.87;;;;;;;;;;5053471;28;20025;-56
2024/01/17 00:36:00;;;;;;;14.10;11.50;;;;;;;;;;5053969;28;20029;-53
2024/01/17 00:38:26;;;;;;;11.27;9.53;;;;;;;;;;5054155;28;20029;-57
2024/01/17 00:40:52;;;;;;;18.40;11.50;;;;;;;;;;5053381;28;20063;-56
2024/01/17 00:43:18;;;;;;;16.47;11.97;;;;;;;;;;5053643;28;20033;-55
2024/01/17 00:45:44;;;;;;;14.70;11.33;;;;;;;;;;5054967;28;20025;-56
2024/01/17 00:48:13;;;;;;;13.77;10.23;;;;;;;;;;5057897;28;20036;-56
2024/01/17 00:50:39;;;;;;;15.27;11.90;;;;;;;;;;5057521;28;20037;-55
2024/01/17 00:53:05;;;;;;;20.67;12.37;;;;;;;;;;5058002;28;20029;-56
2024/01/17 00:55:31;;;;;;;12.57;10.17;;;;;;;;;;5057025;28;20045;-56
2024/01/17 00:57:57;;;;;;;19.73;12.00;;;;;;;;;;5057410;28;20028;-56
2024/01/17 01:00:23;;;;;;;13.67;11.40;;;;;;;;;;5056842;28;20021;-56
2024/01/17 01:02:51;;;;;;;13.77;10.27;;;;;;;;;;5057245;28;20340;-56
2024/01/17 01:05:17;;;;;;;12.00;10.30;;;;;;;;;;5057003;28;20112;-55
2024/01/17 01:07:43;;;;;;;15.07;11.40;;;;;;;;;;5057553;28;20194;-56
2024/01/17 01:10:09;;;;;;;13.50;10.80;;;;;;;;;;5055654;28;20084;-56
2024/01/17 01:12:35;;;;;;;13.37;9.87;;;;;;;;;;5056879;28;20371;-56
2024/01/17 01:15:01;;;;;;;13.63;11.23;;;;;;;;;;5056461;28;20079;-54
2024/01/17 01:17:27;;;;;;;15.20;11.37;;;;;;;;;;5057547;28;20029;-56
2024/01/17 01:19:55;;;;;;;20.53;12.60;;;;;;;;;;5056749;28;20064;-54
2024/01/17 01:22:21;;;;;;;17.17;11.80;;;;;;;;;;5056626;28;20370;-56
2024/01/17 01:24:47;;;;;;;16.50;11.03;;;;;;;;;;5056677;28;20459;-54
2024/01/17 01:27:13;;;;;;;16.93;12.90;;;;;;;;;;5056694;28;20040;-56
2024/01/17 01:29:39;;;;;;;13.23;9.80;;;;;;;;;;5057408;28;20033;-56
2024/01/17 01:32:05;;;;;;;11.73;9.63;;;;;;;;;;5056756;28;20052;-56
2024/01/17 01:34:31;;;;;;;15.67;11.57;;;;;;;;;;5056225;28;20025;-54
2024/01/17 01:36:57;;;;;;;14.43;11.00;;;;;;;;;;5056611;28;20029;-56
2024/01/17 01:39:23;;;;;;;15.43;11.80;;;;;;;;;;5057032;28;20348;-56
2024/01/17 01:41:49;;;;;;;13.93;12.07;;;;;;;;;;5056410;28;20108;-53
2024/01/17 01:44:14;;;;;;;11.33;10.13;;;;;;;;;;5056648;28;20440;-56
2024/01/17 01:46:43;;;;;;;12.67;9.60;;;;;;;;;;5056194;28;20455;-55
2024/01/17 01:49:09;;;;;;;13.97;10.90;;;;;;;;;;5056791;28;20029;-56
2024/01/17 01:51:35;;;;;;;14.87;11.90;;;;;;;;;;5056177;28;20482;-57
2024/01/17 01:54:02;;;;;;;15.77;11.33;;;;;;;;;;5056120;28;20074;-57
2024/01/17 01:56:30;;;;;;;14.07;10.27;;;;;;;;;;5055199;28;20135;-56
2024/01/17 01:58:56;;;;;;;14.30;11.30;;;;;;;;;;5056356;28;20344;-55
2024/01/17 02:01:25;;;;;;;13.93;10.87;;;;;;;;;;5056491;28;20069;-53
2024/01/17 02:03:51;;;;;;;14.93;11.17;;;;;;;;;;5055918;28;20033;-56
2024/01/17 02:06:18;;;;;;;12.63;10.00;;;;;;;;;;5055979;28;20092;-57
2024/01/17 02:08:44;;;;;;;15.50;10.90;;;;;;;;;;5056293;28;20509;-55
2024/01/17 02:11:10;;;;;;;12.87;10.13;;;;;;;;;;5056121;28;20021;-56
2024/01/17 02:13:36;;;;;;;16.50;10.40;;;;;;;;;;5055811;28;20378;-53
2024/01/17 02:16:02;;;;;;;16.80;10.43;;;;;;;;;;5055685;28;20513;-54
2024/01/17 02:18:28;;;;;;;14.67;10.10;;;;;;;;;;5055634;28;20041;-56
2024/01/17 02:20:54;;;;;;;11.87;9.93;;;;;;;;;;5056102;28;20134;-56
2024/01/17 02:23:27;;;;;;;16.13;11.63;;;;;;;;;;5055561;28;20364;-53
2024/01/17 02:25:54;;;;;;;13.23;10.27;;;;;;;;;;5055533;28;20375;-54
2024/01/17 02:28:20;;;;;;;14.87;9.60;;;;;;;;;;5056088;28;20032;-56
2024/01/17 02:30:46;;;;;;;17.43;12.00;;;;;;;;;;5055494;28;20061;-52
2024/01/17 02:33:13;;;;;;;14.77;10.33;;;;;;;;;;5055418;28;20055;-57
2024/01/17 02:35:40;;;;;;;16.73;10.73;;;;;;;;;;5055845;28;20447;-55
2024/01/17 02:38:06;;;;;;;14.50;10.97;;;;;;;;;;5055259;28;20036;-54
2024/01/17 02:40:32;;;;;;;12.17;10.83;;;;;;;;;;5055247;28;20053;-53
2024/01/17 02:42:58;;;;;;;12.83;9.90;;;;;;;;;;5055204;28;20021;-53
2024/01/17 02:45:24;;;;;;;16.43;11.70;;;;;;;;;;5055171;28;20375;-52
2024/01/17 02:47:50;;;;;;;12.20;8.60;;;;;;;;;;5055131;28;20025;-54
2024/01/17 02:50:16;;;;;;;16.03;11.70;;;;;;;;;;5055365;28;20029;-56
2024/01/17 02:52:42;;;;;;;11.67;10.17;;;;;;;;;;5054993;28;20082;-56
2024/01/17 02:55:08;;;;;;;16.43;11.67;;;;;;;;;;5055007;28;20127;-55
2024/01/17 02:57:34;;;;;;;12.37;10.17;;;;;;;;;;5055421;28;20041;-55
2024/01/17 03:00:00;;;;;;;12.17;9.80;;;;;;;;;;5054832;28;20121;-55
2024/01/17 03:02:26;;;;;;;17.47;10.80;;;;;;;;;;5054871;28;20032;-55
2024/01/17 03:04:52;;;;;;;14.10;10.13;;;;;;;;;;5054746;28;20463;-55
2024/01/17 03:07:18;;;;;;;12.67;10.73;;;;;;;;;;5055561;28;20124;-56
2024/01/17 03:09:44;;;;;;;12.97;10.73;;;;;;;;;;5054552;28;20021;-52
2024/01/17 03:12:10;;;;;;;11.47;10.07;;;;;;;;;;5054590;28;20087;-55
2024/01/17 03:14:36;;;;;;;13.67;10.27;;;;;;;;;;5054889;28;20027;-55
2024/01/17 03:17:02;;;;;;;16.07;11.37;;;;;;;;;;5054466;28;20090;-55
2024/01/17 03:19:28;;;;;;;15.70;11.87;;;;;;;;;;5054515;28;20029;-55
2024/01/17 03:21:55;;;;;;;15.50;10.77;;;;;;;;;;5054533;28;20047;-54
2024/01/17 03:24:21;;;;;;;17.47;12.27;;;;;;;;;;5054390;28;20070;-54
2024/01/17 03:26:47;;;;;;;16.40;10.67;;;;;;;;;;5054324;28;20068;-56
2024/01/17 03:29:13;;;;;;;16.17;11.90;;;;;;;;;;5054914;28;20021;-54
2024/01/17 03:31:39;;;;;;;13.53;12.10;;;;;;;;;;5054251;28;20036;-55
2024/01/17 03:34:05;;;;;;;13.27;10.63;;;;;;;;;;5054226;28;20021;-55
2024/01/17 03:36:31;;;;;;;13.60;10.73;;;;;;;;;;5053845;28;20479;-56
2024/01/17 03:38:57;;;;;;;13.97;10.63;;;;;;;;;;5054179;28;20116;-54
2024/01/17 03:41:23;;;;;;;16.03;11.37;;;;;;;;;;5054097;28;20102;-55
2024/01/17 03:43:50;;;;;;;15.93;12.23;;;;;;;;;;5054817;28;20021;-56
2024/01/17 03:46:16;;;;;;;15.13;12.00;;;;;;;;;;5054776;28;20056;-56
2024/01/17 03:48:42;;;;;;;15.27;12.47;;;;;;;;;;5054206;28;20029;-55
2024/01/17 03:51:08;;;;;;;14.13;11.53;;;;;;;;;;5053618;28;20029;-57
2024/01/17 03:53:34;;;;;;;17.03;11.70;;;;;;;;;;5053926;28;20025;-56
2024/01/17 03:56:00;;;;;;;13.60;11.87;;;;;;;;;;5054051;28;20507;-57
2024/01/17 03:58:26;;;;;;;14.73;11.63;;;;;;;;;;5054071;28;20060;-59
2024/01/17 04:00:52;;;;;;;16.53;12.20;;;;;;;;;;5053829;28;20025;-60
2024/01/17 04:03:18;;;;;;;13.20;10.63;;;;;;;;;;5054367;28;20517;-57
2024/01/17 04:05:44;;;;;;;15.73;11.43;;;;;;;;;;5054001;28;20053;-56
2024/01/17 04:08:11;;;;;;;15.30;11.17;;;;;;;;;;5054071;28;20033;-57
2024/01/17 04:10:36;;;;;;;11.53;9.33;;;;;;;;;;5054486;28;20021;-55
2024/01/17 04:13:02;;;;;;;15.33;12.33;;;;;;;;;;5053930;28;20039;-56
2024/01/17 04:15:29;;;;;;;14.10;10.77;;;;;;;;;;5053292;28;20493;-57
2024/01/17 04:17:55;;;;;;;16.10;10.30;;;;;;;;;;5054349;28;20159;-55
2024/01/17 04:20:21;;;;;;;16.07;11.10;;;;;;;;;;5052220;28;20379;-55
2024/01/17 04:22:47;;;;;;;14.30;12.30;;;;;;;;;;5053308;28;20032;-56
2024/01/17 04:25:13;;;;;;;12.33;10.20;;;;;;;;;;5053307;28;20060;-56
2024/01/17 04:27:39;;;;;;;16.77;12.90;;;;;;;;;;5054066;28;20037;-57
2024/01/17 04:30:06;;;;;;;14.80;13.10;;;;;;;;;;5054269;28;20434;-56
2024/01/17 04:32:35;;;;;;;17.77;14.17;;;;;;;;;;5053596;28;20040;-57
2024/01/17 04:35:02;;;;;;;18.57;14.53;;;;;;;;;;5053519;28;20022;-56
2024/01/17 04:37:27;;;;;;;15.30;12.33;;;;;;;;;;5053130;28;20039;-57
2024/01/17 04:39:53;;;;;;;15.70;12.77;;;;;;;;;;5053417;28;20107;-57
2024/01/17 04:42:19;;;;;;;14.97;13.17;;;;;;;;;;5053382;28;20021;-57
2024/01/17 04:44:46;;;;;;;15.97;14.27;;;;;;;;;;5053392;28;20028;-57
2024/01/17 04:47:14;;;;;;;15.73;14.07;;;;;;;;;;5053350;28;20052;-57
2024/01/17 04:49:40;;;;;;;18.23;14.37;;;;;;;;;;5053857;28;20340;-57
2024/01/17 04:52:06;;;;;;;20.77;14.43;;;;;;;;;;5052033;28;20025;-56
2024/01/17 04:54:32;;;;;;;17.67;13.63;;;;;;;;;;5053092;28;20045;-57
2024/01/17 04:56:58;;;;;;;19.90;14.90;;;;;;;;;;5053747;28;20077;-56
2024/01/17 04:59:24;;;;;;;18.20;12.73;;;;;;;;;;5053558;28;20044;-57
2024/01/17 05:01:50;;;;;;;18.90;13.87;;;;;;;;;;5052929;28;20029;-57
2024/01/17 05:04:16;;;;;;;17.33;14.20;;;;;;;;;;5053767;28;20028;-59
2024/01/17 05:06:42;;;;;;;14.87;13.03;;;;;;;;;;5053355;28;20111;-57
2024/01/17 05:09:08;;;;;;;14.53;13.13;;;;;;;;;;5053343;28;20103;-57
2024/01/17 05:11:35;;;;;;;18.47;13.13;;;;;;;;;;5053229;28;20029;-58
2024/01/17 05:14:01;;;;;;;17.87;13.50;;;;;;;;;;5053185;28;20017;-57
2024/01/17 05:16:26;;;;;;;19.43;13.33;;;;;;;;;;5053313;28;20344;-57
2024/01/17 05:18:52;;;;;;;15.07;12.93;;;;;;;;;;5053670;28;20027;-57
2024/01/17 05:21:18;;;;;;;18.47;13.00;;;;;;;;;;5053088;28;20040;-58
2024/01/17 05:23:44;;;;;;;19.77;13.83;;;;;;;;;;5053092;28;20074;-57
2024/01/17 05:26:10;;;;;;;18.20;15.73;;;;;;;;;;5053237;28;20067;-57
2024/01/17 05:28:36;;;;;;;16.97;12.97;;;;;;;;;;5053864;28;20032;-58
2024/01/17 05:31:02;;;;;;;18.13;14.47;;;;;;;;;;5052989;28;20028;-57
2024/01/17 05:33:28;;;;;;;15.90;13.17;;;;;;;;;;5055605;28;20036;-57
2024/01/17 05:35:54;;;;;;;14.43;12.80;;;;;;;;;;5056549;28;20025;-56
2024/01/17 05:38:20;;;;;;;16.83;13.60;;;;;;;;;;5056516;28;20037;-58
2024/01/17 05:40:46;;;;;;;17.60;14.27;;;;;;;;;;5056467;28;20025;-57
2024/01/17 05:43:12;;;;;;;15.70;14.07;;;;;;;;;;5056283;28;20027;-57
2024/01/17 05:45:38;;;;;;;17.03;14.27;;;;;;;;;;5056279;28;20024;-58
2024/01/17 05:48:04;;;;;;;18.10;14.43;;;;;;;;;;5055994;28;20061;-57
2024/01/17 05:50:30;;;;;;;15.70;13.53;;;;;;;;;;5056239;28;20374;-58
2024/01/17 05:52:56;;;;;;;17.20;13.03;;;;;;;;;;5056106;28;20028;-58
2024/01/17 05:55:22;;;;;;;16.70;13.70;;;;;;;;;;5056433;28;20049;-58
2024/01/17 05:57:50;;;;;;;19.73;14.53;;;;;;;;;;5056612;28;20040;-57
2024/01/17 06:00:18;;;;;;;18.43;14.40;;;;;;;;;;5055996;28;20040;-57
2024/01/17 06:02:44;;;;;;;16.10;13.10;;;;;;;;;;5055970;28;20425;-57
2024/01/17 06:05:11;;;;;;;21.30;13.83;;;;;;;;;;5055897;28;20111;-58
2024/01/17 06:07:39;;;;;;;18.27;13.50;;;;;;;;;;5056513;28;20025;-57
2024/01/17 06:10:05;;;;;;;15.93;12.87;;;;;;;;;;5055821;28;20112;-58
2024/01/17 06:12:31;;;;;;;16.13;14.43;;;;;;;;;;5055778;28;20028;-58
2024/01/17 06:14:57;;;;;;;21.63;14.60;;;;;;;;;;5056358;28;20087;-58
2024/01/17 06:17:23;;;;;;;23.23;14.17;;;;;;;;;;5056463;28;20044;-58
2024/01/17 06:19:49;;;;;;;18.90;13.63;;;;;;;;;;5055646;28;20083;-58
2024/01/17 06:22:19;;;;;;;18.00;12.93;;;;;;;;;;5056221;28;20028;-58
2024/01/17 06:24:45;;;;;;;17.77;13.80;;;;;;;;;;5055482;28;20028;-57
2024/01/17 06:27:12;;;;;;;14.60;13.00;;;;;;;;;;5055301;28;20455;-58
2024/01/17 06:29:41;;;;;;;19.30;12.63;;;;;;;;;;5055669;28;20234;-58
2024/01/17 06:32:07;;;;;;;19.23;12.90;;;;;;;;;;5055337;28;20029;-58
2024/01/17 06:34:32;;;;;;;16.07;12.93;;;;;;;;;;5055684;28;20182;-58
2024/01/17 06:36:58;;;;;;;18.57;12.93;;;;;;;;;;5054912;28;20548;-58
2024/01/17 06:39:26;;;;;;;19.27;13.43;;;;;;;;;;5055837;28;20059;-57
2024/01/17 06:41:52;;;;;;;15.30;12.37;;;;;;;;;;5055783;28;20025;-57
2024/01/17 06:44:18;;;;;;;20.50;14.37;;;;;;;;;;5054844;28;20033;-57
2024/01/17 06:46:44;;;;;;;17.50;14.87;;;;;;;;;;5055226;28;20033;-58
2024/01/17 06:49:10;;;;;;;17.00;13.40;;;;;;;;;;5055814;28;20116;-58
2024/01/17 06:51:36;;;;;;;19.33;13.57;;;;;;;;;;5054823;28;20115;-58
2024/01/17 06:54:02;;;;;;;17.03;13.40;;;;;;;;;;5055495;28;20438;-58
2024/01/17 06:56:28;;;;;;;19.07;15.27;;;;;;;;;;5055073;28;20091;-57
2024/01/17 06:58:54;;;;;;;15.57;14.07;;;;;;;;;;5055239;28;20051;-58
2024/01/17 07:01:20;;;;;;;20.23;15.07;;;;;;;;;;5055319;28;20032;-58
2024/01/17 07:03:46;;;;;;;17.07;13.37;;;;;;;;;;5055225;28;20362;-58
2024/01/17 07:06:12;;;;;;;17.43;14.17;;;;;;;;;;5054772;28;20021;-58
2024/01/17 07:08:38;;;;;;;20.50;14.30;;;;;;;;;;5055289;28;20020;-58
2024/01/17 07:11:04;;;;;;;14.23;12.83;;;;;;;;;;5055026;28;20109;-58
2024/01/17 07:13:30;;;;;;;16.60;14.17;;;;;;;;;;5054516;28;20058;-58
2024/01/17 07:15:56;;;;;;;19.00;14.67;;;;;;;;;;5054419;28;20029;-57
2024/01/17 07:18:22;;;;;;;19.80;15.40;;;;;;;;;;5054176;28;20112;-58
2024/01/17 07:20:49;;;;;;;18.83;14.73;;;;;;;;;;5054128;28;20033;-58
2024/01/17 07:23:14;;;;;;;16.33;13.23;;;;;;;;;;5055140;28;20025;-58
2024/01/17 07:25:40;;;;;;;23.77;14.30;;;;;;;;;;5054319;28;20021;-58
2024/01/17 07:28:06;;;;;;;18.80;15.87;;;;;;;;;;5054744;28;20025;-59
2024/01/17 07:30:32;;;;;;;21.70;16.47;;;;;;;;;;5054129;28;20116;-58
2024/01/17 07:32:59;;;;;;;17.00;15.30;;;;;;;;;;5054620;28;20104;-58
2024/01/17 07:35:25;;;;;;;20.13;14.90;;;;;;;;;;5054517;28;20029;-58
2024/01/17 07:37:51;;;;;;;18.33;14.87;;;;;;;;;;5054735;28;20410;-58
2024/01/17 07:40:17;;;;;;;16.03;14.33;;;;;;;;;;5054073;28;20071;-58
2024/01/17 07:42:43;;;;;;;18.60;14.20;;;;;;;;;;5054064;28;20032;-58
2024/01/17 07:45:13;;;;;;;16.67;14.90;;;;;;;;;;5054576;28;20079;-58
2024/01/17 07:47:38;;;;;;;21.60;15.03;;;;;;;;;;5054560;28;20037;-58
2024/01/17 07:50:05;;;;;;;18.47;16.47;;;;;;;;;;5053893;28;20025;-58
2024/01/17 07:52:31;;;;;;;20.23;16.67;;;;;;;;;;5052723;28;20475;-58
2024/01/17 07:54:56;;;;;;;22.67;16.33;;;;;;;;;;5052897;28;20092;-58
2024/01/17 07:57:23;;;;;;;21.53;16.33;;;;;;;;;;5053860;28;20040;-58
2024/01/17 07:59:49;;;;;;;20.77;16.07;;;;;;;;;;5053424;28;20495;-58
2024/01/17 08:02:17;;;;;;;21.37;17.03;;;;;;;;;;5053779;28;20022;-58
2024/01/17 08:04:43;;;;;;;21.30;15.83;;;;;;;;;;5054624;28;20079;-58
2024/01/17 08:07:09;;;;;;;27.07;16.13;;;;;;;;;;5053827;28;20029;-58
2024/01/17 08:09:35;;;;;;;21.90;17.57;;;;;;;;;;5054519;28;20025;-58
2024/01/17 08:12:01;;;;;;;24.70;17.27;;;;;;;;;;5053749;28;20052;-58
2024/01/17 08:14:27;;;;;;;27.70;18.50;;;;;;;;;;5053692;28;20025;-58
2024/01/17 08:16:53;;;;;;;24.87;17.10;;;;;;;;;;5053618;28;20033;-58
2024/01/17 08:19:19;;;;;;;19.83;17.00;;;;;;;;;;5054271;28;20029;-57
2024/01/17 08:21:49;;;;;;;26.03;16.87;;;;;;;;;;5054185;28;20036;-58
2024/01/17 08:24:15;;;;;;;18.67;15.77;;;;;;;;;;5053524;28;20033;-58
2024/01/17 08:26:41;;;;;;;22.40;16.97;;;;;;;;;;5053498;28;20056;-58
2024/01/17 08:29:07;;;;;;;28.53;17.37;;;;;;;;;;5054178;28;20083;-58
2024/01/17 08:31:33;;;;;;;28.30;17.57;;;;;;;;;;5054109;28;20029;-58
2024/01/17 08:33:59;;;;;;;23.70;16.70;;;;;;;;;;5053740;28;20057;-58
2024/01/17 08:36:31;;;;;;;26.83;16.87;;;;;;;;;;5053955;28;20025;-57
2024/01/17 08:38:58;;;;;;;17.43;15.63;;;;;;;;;;5053925;28;20100;-58
2024/01/17 08:41:24;;;;;;;27.13;17.03;;;;;;;;;;5053990;28;20116;-58
2024/01/17 08:43:49;;;;;;;27.57;16.40;;;;;;;;;;5053423;28;20467;-58
2024/01/17 08:46:15;;;;;;;20.07;15.67;;;;;;;;;;5053299;28;20021;-59
2024/01/17 08:48:42;;;;;;;22.57;15.80;;;;;;;;;;5053697;28;20098;-59
2024/01/17 08:51:08;;;;;;;19.92;15.80;;;;;;;;;;5053023;28;20029;-59
2024/01/17 08:53:37;;;;;;;19.57;14.57;;;;;;;;;;5053340;28;20025;-59
2024/01/17 08:56:05;;;;;;;22.80;15.07;;;;;;;;;;5053084;28;20482;-59
2024/01/17 08:58:31;;;;;;;24.20;16.57;;;;;;;;;;5054117;28;20040;-59
2024/01/17 09:00:57;;;;;;;15.77;14.03;;;;;;;;;;5053306;28;20025;-59
2024/01/17 09:03:23;;;;;;;16.07;14.23;;;;;;;;;;5053270;28;20035;-59
2024/01/17 09:05:49;;;;;;;19.07;14.40;;;;;;;;;;5053394;28;20017;-59
2024/01/17 09:08:15;;;;;;;19.10;14.85;;;;;;;;;;5057632;28;20028;-59
2024/01/17 09:10:41;;;;;;;30.48;14.43;;;;;;;;;;5056977;28;20025;-58
2024/01/17 09:13:07;;;;;;;23.60;15.63;;;;;;;;;;5057527;28;20045;-59
2024/01/17 09:15:34;;;;;;;21.87;15.13;;;;;;;;;;5057047;28;20119;-57
2024/01/17 09:18:00;;;;;;;21.45;12.80;;;;;;;;;;5057726;28;20067;-58
2024/01/17 09:20:27;;;;;;;14.52;11.60;;;;;;;;;;5056600;28;20025;-59
2024/01/17 09:22:53;;;;;;;15.05;12.98;;;;;;;;;;5056889;28;20127;-59
2024/01/17 09:25:19;;;;;;;19.80;12.30;;;;;;;;;;5056533;28;20103;-59
2024/01/17 09:27:45;;;;;;;14.63;11.18;;;;;;;;;;5057650;28;20364;-59
2024/01/17 09:30:11;;;;;;;20.83;13.37;;;;;;;;;;5056724;28;20074;-59
2024/01/17 09:32:37;;;;;;;20.35;12.40;;;;;;;;;;5056965;28;20217;-59
2024/01/17 09:35:04;;;;;;;20.15;13.75;;;;;;;;;;5057139;28;20045;-59
2024/01/17 09:37:30;;;;;;;20.13;13.85;;;;;;;;;;5056755;28;20489;-58
2024/01/17 09:39:56;;;;;;;22.58;13.70;;;;;;;;;;5057027;28;20028;-58
2024/01/17 09:42:22;;;;;;;23.55;13.35;;;;;;;;;;5056330;28;20083;-58
2024/01/17 09:44:48;;;;;;;13.68;11.15;;;;;;;;;;5056884;28;20036;-59
2024/01/17 09:47:15;;;;;;;11.98;10.50;;;;;;;;;;5057001;28;20116;-59
2024/01/17 09:49:41;;;;;;;15.67;10.73;;;;;;;;;;5055673;28;20478;-58
2024/01/17 09:52:08;;;;;;;15.00;11.77;;;;;;;;;;5056800;28;20048;-58
2024/01/17 09:54:36;;;;;;;15.38;10.40;;;;;;;;;;5056207;28;20494;-58
2024/01/17 09:57:07;;;;;;;17.90;12.82;;;;;;;;;;5056757;28;20353;-61
2024/01/17 09:59:34;;;;;;;14.68;11.40;;;;;;;;;;5056491;28;20029;-59
2024/01/17 10:02:01;;;;;;;13.93;10.45;;;;;;;;;;5056031;28;20073;-58
2024/01/17 10:04:27;;;;;;;15.80;12.07;;;;;;;;;;5056047;28;20036;-58
2024/01/17 10:06:55;;;;;;;15.75;11.25;;;;;;;;;;5056263;28;20037;-58
2024/01/17 10:09:24;;;;;;;10.90;9.77;;;;;;;;;;5055912;28;20092;-59
2024/01/17 10:11:51;;;;;;;13.90;10.35;;;;;;;;;;5055915;28;20020;-59
2024/01/17 10:14:17;;;;;;;11.75;9.07;;;;;;;;;;5055856;28;20036;-59
2024/01/17 10:16:43;;;;;;;11.65;9.40;;;;;;;;;;5055726;28;20036;-57
2024/01/17 10:19:09;;;;;;;12.73;10.05;;;;;;;;;;5055298;28;20033;-58
2024/01/17 10:21:35;;;;;;;13.13;10.43;;;;;;;;;;5055440;28;20049;-59
2024/01/17 10:24:06;;;;;;;13.32;10.65;;;;;;;;;;5055701;28;20468;-59
2024/01/17 10:26:32;;;;;;;17.45;11.40;;;;;;;;;;5056287;28;20078;-58
2024/01/17 10:28:59;;;;;;;14.50;11.45;;;;;;;;;;5055608;28;20111;-59
2024/01/17 10:31:25;;;;;;;17.27;12.73;;;;;;;;;;5056070;28;20017;-59
2024/01/17 10:33:51;;;;;;;15.35;11.52;;;;;;;;;;5055749;28;20082;-59
2024/01/17 10:36:17;;;;;;;17.00;12.98;;;;;;;;;;5055562;28;20047;-59
2024/01/17 10:38:44;;;;;;;13.00;10.82;;;;;;;;;;5055935;28;20021;-58
2024/01/17 10:41:10;;;;;;;16.45;13.50;;;;;;;;;;5055593;28;20037;-59
2024/01/17 10:43:53;;;;;;;12.73;11.43;;;;;;;;;;5055858;28;20032;-59
2024/01/17 10:46:19;;;;;;;14.00;10.98;;;;;;;;;;5055304;28;20029;-59
2024/01/17 10:48:45;;;;;;;16.02;12.80;;;;;;;;;;5055898;28;20032;-58
2024/01/17 10:51:16;;;;;;;12.60;10.07;;;;;;;;;;5055523;28;20053;-59
2024/01/17 10:53:42;;;;;;;14.60;10.55;;;;;;;;;;5055433;28;20098;-59
2024/01/17 10:56:08;;;;;;;16.65;12.20;;;;;;;;;;5055582;28;20450;-59
2024/01/17 10:58:35;;;;;;;13.10;9.70;;;;;;;;;;5055330;28;20394;-59
2024/01/17 11:01:04;;;;;;;13.55;10.25;;;;;;;;;;5055525;28;20036;-59
2024/01/17 11:03:32;;;;;;;14.88;9.80;;;;;;;;;;5055450;28;20040;-59
2024/01/17 11:05:59;;;;;;;17.38;11.98;;;;;;;;;;5054898;28;20029;-59
2024/01/17 11:08:26;;;;;;;15.93;10.43;;;;;;;;;;5055318;28;20462;-59
2024/01/17 11:10:53;;;;;;;12.00;8.57;;;;;;;;;;5054835;28;20021;-59
2024/01/17 11:13:19;;;;;;;7.43;6.65;;;;;;;;;;5055202;28;20028;-58
2024/01/17 11:15:48;;;;;;;9.63;6.35;;;;;;;;;;5054974;28;20110;-59
2024/01/17 11:18:15;;;;;;;10.20;7.38;;;;;;;;;;5054912;28;20033;-59
2024/01/17 11:20:41;;;;;;;9.50;6.82;;;;;;;;;;5053485;28;20040;-59
2024/01/17 11:23:08;;;;;;;8.85;7.05;;;;;;;;;;5054485;28;20038;-59
2024/01/17 11:25:42;;;;;;;8.75;6.90;;;;;;;;;;5054512;28;20029;-59
2024/01/17 11:28:14;;;;;;;10.63;7.20;;;;;;;;;;5054497;28;20059;-59
2024/01/17 11:30:53;;;;;;;9.80;8.73;;;;;;;;;;5055259;28;20071;-59
2024/01/17 11:33:19;;;;;;;9.52;7.57;;;;;;;;;;5054686;28;20029;-59
2024/01/17 11:35:50;;;;;;;15.68;8.63;;;;;;;;;;5054902;28;20355;-58
2024/01/17 11:38:16;;;;;;;;;;;;;;;;;;5055249;28;20032;-59
2024/01/17 11:40:42;;;;;;;10.20;9.13;;;;;;;;;;5054512;28;20052;-59
2024/01/17 11:43:09;;;;;;;13.68;9.75;;;;;;;;;;5054530;28;20040;-59
2024/01/17 11:45:38;;;;;;;9.88;8.85;;;;;;;;;;5054468;28;20025;-59
2024/01/17 11:48:19;;;;;;;12.13;8.65;;;;;;;;;;5054443;28;20222;-59
2024/01/17 11:51:14;;;;;;;12.95;9.88;;;;;;;;;;5054042;28;20025;-59
2024/01/17 11:53:41;;;;;;;11.27;9.85;;;;;;;;;;5049456;28;20040;-59
2024/01/17 11:56:09;;;;;;;15.23;9.45;;;;;;;;;;5055217;28;20053;-59
2024/01/17 11:58:46;;;;;;;12.00;9.55;;;;;;;;;;5055094;28;20064;-59
2024/01/17 12:01:17;;;;;;;14.55;10.88;;;;;;;;;;5054537;28;20064;-59
2024/01/17 12:03:43;;;;;;;14.30;9.38;;;;;;;;;;5054496;28;20032;-59
2024/01/17 12:06:11;;;;;;;14.48;9.05;;;;;;;;;;5053782;28;20104;-59
2024/01/17 12:08:37;;;;;;;9.30;8.40;;;;;;;;;;5054638;28;20049;-59
2024/01/17 12:11:04;;;;;;;13.18;8.80;;;;;;;;;;5053792;28;20025;-59
2024/01/17 12:13:29;;;;;;;10.82;8.13;;;;;;;;;;5053789;28;20025;-59
2024/01/17 12:15:57;;;;;;;13.75;9.07;;;;;;;;;;5053446;28;20056;-59
2024/01/17 12:18:23;;;;;;;13.32;9.52;;;;;;;;;;5054246;28;20522;-59
2024/01/17 12:20:49;;;;;;;10.48;8.77;;;;;;;;;;5053692;28;20387;-59
2024/01/17 12:23:19;;;;;;;11.35;6.95;;;;;;;;;;5054488;28;20465;-59
2024/01/17 12:25:46;;;;;;;12.68;8.25;;;;;;;;;;5054330;28;20029;-59
2024/01/17 12:28:21;;;;;;;9.20;8.30;;;;;;;;;;5053951;28;20033;-59
2024/01/17 12:30:59;;;;;;;11.65;7.75;;;;;;;;;;5053695;28;20025;-59
2024/01/17 12:33:27;;;;;;;12.85;9.15;;;;;;;;;;5053571;28;20379;-59
2024/01/17 12:35:54;;;;;;;19.67;11.20;;;;;;;;;;5053455;28;20064;-59
2024/01/17 12:38:20;;;;;;;13.82;9.05;;;;;;;;;;5054150;28;20459;-59
2024/01/17 12:40:48;;;;;;;13.05;9.77;;;;;;;;;;5053881;28;20033;-59
2024/01/17 12:43:14;;;;;;;13.45;9.80;;;;;;;;;;5057808;28;20467;-59
2024/01/17 12:45:40;;;;;;;11.73;8.65;;;;;;;;;;5058082;28;20033;-59
2024/01/17 12:48:06;;;;;;;9.40;7.63;;;;;;;;;;5057997;28;20494;-59
2024/01/17 12:50:33;;;;;;;15.43;8.50;;;;;;;;;;5058027;28;20025;-59
2024/01/17 12:52:59;;;;;;;17.85;7.95;;;;;;;;;;5057953;28;20040;-59
2024/01/17 12:55:25;;;;;;;11.95;8.15;;;;;;;;;;5057456;28;20049;-59
2024/01/17 12:57:51;;;;;;;12.02;6.47;;;;;;;;;;5057554;28;20119;-59
2024/01/17 13:00:20;;;;;;;9.07;6.60;;;;;;;;;;5058051;28;20392;-59
2024/01/17 13:02:46;;;;;;;9.27;6.28;;;;;;;;;;5058243;28;20427;-59
2024/01/17 13:05:13;;;;;;;6.25;4.95;;;;;;;;;;5057317;28;20455;-59
2024/01/17 13:07:41;;;;;;;5.65;4.53;;;;;;;;;;5057560;28;20036;-59
2024/01/17 13:10:14;;;;;;;7.15;5.28;;;;;;;;;;5057152;28;20031;-60
2024/01/17 13:12:40;;;;;;;7.10;4.25;;;;;;;;;;5056940;28;20078;-60
2024/01/17 13:15:12;;;;;;;5.32;4.25;;;;;;;;;;5056968;28;20029;-59
2024/01/17 13:17:38;;;;;;;14.07;5.32;;;;;;;;;;5057326;28;20447;-59
2024/01/17 13:20:15;;;;;;;8.20;5.07;;;;;;;;;;5056750;28;20029;-59
2024/01/17 13:22:41;;;;;;;6.85;5.28;;;;;;;;;;5056872;28;20021;-59
2024/01/17 13:25:07;;;;;;;6.40;5.78;;;;;;;;;;5056803;28;20094;-59
2024/01/17 13:27:33;;;;;;;10.43;6.00;;;;;;;;;;5057588;28;20060;-59
2024/01/17 13:30:03;;;;;;;6.93;4.90;;;;;;;;;;5056685;28;20057;-59
2024/01/17 13:32:29;;;;;;;6.65;4.57;;;;;;;;;;5056663;28;20120;-59
2024/01/17 13:34:55;;;;;;;6.70;4.50;;;;;;;;;;5056217;28;20092;-59
2024/01/17 13:37:22;;;;;;;4.85;3.80;;;;;;;;;;5056245;28;20025;-59
2024/01/17 13:39:48;;;;;;;6.25;4.85;;;;;;;;;;5056548;28;20065;-59
2024/01/17 13:42:14;;;;;;;7.78;3.88;;;;;;;;;;5056574;28;20098;-59
2024/01/17 13:44:40;;;;;;;6.28;3.75;;;;;;;;;;5056456;28;20025;-59
2024/01/17 13:47:06;;;;;;;4.68;3.95;;;;;;;;;;5056478;28;20029;-59
2024/01/17 13:49:35;;;;;;;6.82;3.90;;;;;;;;;;5057033;28;20431;-61
2024/01/17 13:52:01;;;;;;;9.27;4.47;;;;;;;;;;5056602;28;20057;-59
2024/01/17 13:54:27;;;;;;;6.05;3.95;;;;;;;;;;5054950;28;20084;-59
2024/01/17 13:56:53;;;;;;;6.55;4.00;;;;;;;;;;5056139;28;20044;-59
2024/01/17 13:59:19;;;;;;;5.47;4.43;;;;;;;;;;5056221;28;20025;-59
2024/01/17 14:01:45;;;;;;;10.15;4.35;;;;;;;;;;5056636;28;20013;-59
2024/01/17 14:04:11;;;;;;;8.30;4.82;;;;;;;;;;5056583;28;20094;-59
2024/01/17 14:06:37;;;;;;;4.82;4.32;;;;;;;;;;5056813;28;20051;-60
2024/01/17 14:09:06;;;;;;;9.20;4.35;;;;;;;;;;5056773;28;20017;-59
2024/01/17 14:11:33;;;;;;;7.82;4.45;;;;;;;;;;5056558;28;20025;-59
2024/01/17 14:13:59;;;;;;;5.03;3.80;;;;;;;;;;5056496;28;20108;-59
2024/01/17 14:16:24;;;;;;;5.05;3.60;;;;;;;;;;5055919;28;20053;-59
2024/01/17 14:18:51;;;;;;;11.73;3.78;;;;;;;;;;5056330;28;20505;-59